sensor_id;sensor_type;location;lat;lon;timestamp;P1;durP1;ratioP1;P2;durP2;ratioP2
11111;SDS011;5609;49.466;8.468;2022-09-09T00:02:19;5.37;;;1.50;;
11111;SDS011;5609;49.466;8.468;2022-09-09T00:04:48;3.10;;;1.30;;
11111;SDS011;5609;49.466;8.468;2022-09-09T00:07:24;3.30;;;1.70;;
11111;SDS011;5609;49.466;8.468;2022-09-09T00:09:54;2.63;;;1.10;;
11111;SDS011;5609;49.466;8.468;2022-09-09T00:12:27;4.50;;;1.30;;
11111;SDS011;5609;49.466;8.468;2022-09-09T00:14:58;3.00;;;1.40;;
11111;SDS011;5609;49.466;8.468;2022-09-09T00:17:31;3.50;;;1.57;;
11111;SDS011;5609;49.466;8.468;2022-09-09T00:20:00;3.30;;;1.50;;
11111;SDS011;5609;49.466;8.468;2022-09-09T00:22:29;3.70;;;1.50;;
11111;SDS011;5609;49.466;8.468;2022-09-09T00:24:58;4.13;;;1.60;;
11111;SDS011;5609;49.466;8.468;2022-09-09T00:27:30;3.87;;;1.57;;
11111;SDS011;5609;49.466;8.468;2022-09-09T00:30:00;2.83;;;1.50;;
11111;SDS011;5609;49.466;8.468;2022-09-09T00:32:29;3.53;;;1.40;;
11111;SDS011;5609;49.466;8.468;2022-09-09T00:34:58;2.60;;;1.50;;
11111;SDS011;5609;49.466;8.468;2022-09-09T00:37:26;3.80;;;1.57;;
11111;SDS011;5609;49.466;8.468;2022-09-09T00:39:58;2.97;;;1.50;;
11111;SDS011;5609;49.466;8.468;2022-09-09T00:42:30;4.03;;;1.47;;
11111;SDS011;5609;49.466;8.468;2022-09-09T00:45:02;3.17;;;1.53;;
11111;SDS011;5609;49.466;8.468;2022-09-09T00:47:40;3.03;;;1.50;;
11111;SDS011;5609;49.466;8.468;2022-09-09T00:50:14;3.23;;;1.50;;
11111;SDS011;5609;49.466;8.468;2022-09-09T00:52:44;4.00;;;1.70;;
11111;SDS011;5609;49.466;8.468;2022-09-09T00:55:16;4.27;;;1.40;;
11111;SDS011;5609;49.466;8.468;2022-09-09T00:57:47;3.77;;;1.40;;
11111;SDS011;5609;49.466;8.468;2022-09-09T01:00:18;2.50;;;1.40;;
11111;SDS011;5609;49.466;8.468;2022-09-09T01:02:48;3.83;;;1.43;;
11111;SDS011;5609;49.466;8.468;2022-09-09T01:05:19;4.27;;;1.57;;
11111;SDS011;5609;49.466;8.468;2022-09-09T01:07:48;3.37;;;1.50;;
11111;SDS011;5609;49.466;8.468;2022-09-09T01:10:21;3.57;;;1.23;;
11111;SDS011;5609;49.466;8.468;2022-09-09T01:12:50;3.45;;;1.50;;
11111;SDS011;5609;49.466;8.468;2022-09-09T01:15:20;6.43;;;1.50;;
11111;SDS011;5609;49.466;8.468;2022-09-09T01:17:51;2.20;;;1.30;;
11111;SDS011;5609;49.466;8.468;2022-09-09T01:20:20;4.23;;;1.70;;
11111;SDS011;5609;49.466;8.468;2022-09-09T01:22:51;5.73;;;1.60;;
11111;SDS011;5609;49.466;8.468;2022-09-09T01:25:26;3.53;;;1.53;;
11111;SDS011;5609;49.466;8.468;2022-09-09T01:27:56;3.33;;;1.67;;
11111;SDS011;5609;49.466;8.468;2022-09-09T01:30:24;5.63;;;1.70;;
11111;SDS011;5609;49.466;8.468;2022-09-09T01:32:53;4.40;;;1.90;;
11111;SDS011;5609;49.466;8.468;2022-09-09T01:35:27;4.50;;;1.50;;
11111;SDS011;5609;49.466;8.468;2022-09-09T01:37:56;2.77;;;1.50;;
11111;SDS011;5609;49.466;8.468;2022-09-09T01:40:23;3.27;;;1.57;;
11111;SDS011;5609;49.466;8.468;2022-09-09T01:42:50;3.53;;;1.70;;
11111;SDS011;5609;49.466;8.468;2022-09-09T01:45:19;2.80;;;1.40;;
11111;SDS011;5609;49.466;8.468;2022-09-09T01:47:47;3.03;;;1.50;;
11111;SDS011;5609;49.466;8.468;2022-09-09T01:50:15;4.60;;;1.70;;
11111;SDS011;5609;49.466;8.468;2022-09-09T01:52:42;2.73;;;1.33;;
11111;SDS011;5609;49.466;8.468;2022-09-09T01:55:10;3.20;;;1.53;;
11111;SDS011;5609;49.466;8.468;2022-09-09T01:57:39;3.10;;;1.83;;
11111;SDS011;5609;49.466;8.468;2022-09-09T02:00:09;2.90;;;1.80;;
11111;SDS011;5609;49.466;8.468;2022-09-09T02:02:39;2.93;;;1.60;;
11111;SDS011;5609;49.466;8.468;2022-09-09T02:05:15;3.80;;;1.70;;
11111;SDS011;5609;49.466;8.468;2022-09-09T02:07:45;3.43;;;1.60;;
11111;SDS011;5609;49.466;8.468;2022-09-09T02:10:15;2.40;;;1.40;;
11111;SDS011;5609;49.466;8.468;2022-09-09T02:12:44;5.73;;;1.70;;
11111;SDS011;5609;49.466;8.468;2022-09-09T02:15:14;3.77;;;1.47;;
11111;SDS011;5609;49.466;8.468;2022-09-09T02:17:45;2.33;;;1.70;;
11111;SDS011;5609;49.466;8.468;2022-09-09T02:20:13;2.47;;;1.33;;
11111;SDS011;5609;49.466;8.468;2022-09-09T02:22:42;3.30;;;1.50;;
11111;SDS011;5609;49.466;8.468;2022-09-09T02:25:10;2.43;;;1.40;;
11111;SDS011;5609;49.466;8.468;2022-09-09T02:27:39;2.90;;;1.40;;
11111;SDS011;5609;49.466;8.468;2022-09-09T02:30:07;3.73;;;1.50;;
11111;SDS011;5609;49.466;8.468;2022-09-09T02:32:35;2.60;;;1.43;;
11111;SDS011;5609;49.466;8.468;2022-09-09T02:35:05;3.67;;;1.50;;
11111;SDS011;5609;49.466;8.468;2022-09-09T02:37:34;5.03;;;1.50;;
11111;SDS011;5609;49.466;8.468;2022-09-09T02:40:03;2.87;;;1.43;;
11111;SDS011;5609;49.466;8.468;2022-09-09T02:42:30;3.37;;;1.43;;
11111;SDS011;5609;49.466;8.468;2022-09-09T02:44:57;3.77;;;1.47;;
11111;SDS011;5609;49.466;8.468;2022-09-09T02:47:25;2.70;;;1.37;;
11111;SDS011;5609;49.466;8.468;2022-09-09T02:49:59;3.00;;;1.60;;
11111;SDS011;5609;49.466;8.468;2022-09-09T02:52:32;2.00;;;1.20;;
11111;SDS011;5609;49.466;8.468;2022-09-09T02:55:02;3.20;;;1.30;;
11111;SDS011;5609;49.466;8.468;2022-09-09T02:57:32;2.53;;;1.20;;
11111;SDS011;5609;49.466;8.468;2022-09-09T03:00:00;3.10;;;1.47;;
11111;SDS011;5609;49.466;8.468;2022-09-09T03:02:27;4.70;;;1.30;;
11111;SDS011;5609;49.466;8.468;2022-09-09T03:04:55;3.73;;;1.40;;
11111;SDS011;5609;49.466;8.468;2022-09-09T03:07:23;1.67;;;1.13;;
11111;SDS011;5609;49.466;8.468;2022-09-09T03:09:51;3.87;;;1.50;;
11111;SDS011;5609;49.466;8.468;2022-09-09T03:12:19;3.73;;;1.40;;
11111;SDS011;5609;49.466;8.468;2022-09-09T03:14:47;4.67;;;1.57;;
11111;SDS011;5609;49.466;8.468;2022-09-09T03:17:14;3.87;;;1.30;;
11111;SDS011;5609;49.466;8.468;2022-09-09T03:19:41;2.77;;;1.23;;
11111;SDS011;5609;49.466;8.468;2022-09-09T03:22:09;3.77;;;1.40;;
11111;SDS011;5609;49.466;8.468;2022-09-09T03:24:36;2.57;;;1.30;;
11111;SDS011;5609;49.466;8.468;2022-09-09T03:27:04;4.27;;;1.60;;
11111;SDS011;5609;49.466;8.468;2022-09-09T03:29:32;2.97;;;1.40;;
11111;SDS011;5609;49.466;8.468;2022-09-09T03:31:59;2.33;;;1.10;;
11111;SDS011;5609;49.466;8.468;2022-09-09T03:34:26;2.73;;;1.30;;
11111;SDS011;5609;49.466;8.468;2022-09-09T03:36:53;4.17;;;1.50;;
11111;SDS011;5609;49.466;8.468;2022-09-09T03:39:20;2.17;;;1.33;;
11111;SDS011;5609;49.466;8.468;2022-09-09T03:41:47;5.13;;;1.53;;
11111;SDS011;5609;49.466;8.468;2022-09-09T03:44:16;4.67;;;1.50;;
11111;SDS011;5609;49.466;8.468;2022-09-09T03:46:43;3.33;;;1.33;;
11111;SDS011;5609;49.466;8.468;2022-09-09T03:49:10;3.40;;;1.30;;
11111;SDS011;5609;49.466;8.468;2022-09-09T03:51:37;3.37;;;1.40;;
11111;SDS011;5609;49.466;8.468;2022-09-09T03:54:05;2.67;;;1.10;;
11111;SDS011;5609;49.466;8.468;2022-09-09T03:56:35;4.47;;;1.23;;
11111;SDS011;5609;49.466;8.468;2022-09-09T03:59:02;2.73;;;1.20;;
11111;SDS011;5609;49.466;8.468;2022-09-09T04:01:31;2.77;;;1.10;;
11111;SDS011;5609;49.466;8.468;2022-09-09T04:03:58;2.10;;;1.20;;
11111;SDS011;5609;49.466;8.468;2022-09-09T04:06:27;3.67;;;1.30;;
11111;SDS011;5609;49.466;8.468;2022-09-09T04:08:54;3.13;;;1.10;;
11111;SDS011;5609;49.466;8.468;2022-09-09T04:11:22;3.00;;;1.20;;
11111;SDS011;5609;49.466;8.468;2022-09-09T04:13:49;2.63;;;1.00;;
11111;SDS011;5609;49.466;8.468;2022-09-09T04:16:16;4.03;;;1.10;;
11111;SDS011;5609;49.466;8.468;2022-09-09T04:18:45;2.70;;;1.00;;
11111;SDS011;5609;49.466;8.468;2022-09-09T04:21:12;3.10;;;1.10;;
11111;SDS011;5609;49.466;8.468;2022-09-09T04:23:41;2.70;;;1.03;;
11111;SDS011;5609;49.466;8.468;2022-09-09T04:26:08;3.03;;;1.10;;
11111;SDS011;5609;49.466;8.468;2022-09-09T04:28:36;1.53;;;0.80;;
11111;SDS011;5609;49.466;8.468;2022-09-09T04:31:04;3.17;;;1.00;;
11111;SDS011;5609;49.466;8.468;2022-09-09T04:33:31;2.43;;;0.90;;
11111;SDS011;5609;49.466;8.468;2022-09-09T04:36:00;3.13;;;1.03;;
11111;SDS011;5609;49.466;8.468;2022-09-09T04:38:27;2.20;;;0.90;;
11111;SDS011;5609;49.466;8.468;2022-09-09T04:40:54;3.60;;;0.93;;
11111;SDS011;5609;49.466;8.468;2022-09-09T04:43:21;3.30;;;0.83;;
11111;SDS011;5609;49.466;8.468;2022-09-09T04:45:50;1.57;;;0.93;;
11111;SDS011;5609;49.466;8.468;2022-09-09T04:48:18;1.83;;;0.90;;
11111;SDS011;5609;49.466;8.468;2022-09-09T04:50:53;4.13;;;1.03;;
11111;SDS011;5609;49.466;8.468;2022-09-09T04:53:21;2.30;;;1.07;;
11111;SDS011;5609;49.466;8.468;2022-09-09T04:55:48;1.83;;;0.93;;
11111;SDS011;5609;49.466;8.468;2022-09-09T04:58:15;1.17;;;0.87;;
11111;SDS011;5609;49.466;8.468;2022-09-09T05:00:43;1.50;;;0.83;;
11111;SDS011;5609;49.466;8.468;2022-09-09T05:03:10;2.83;;;0.80;;
11111;SDS011;5609;49.466;8.468;2022-09-09T05:05:37;2.10;;;0.87;;
11111;SDS011;5609;49.466;8.468;2022-09-09T05:08:05;2.03;;;1.00;;
11111;SDS011;5609;49.466;8.468;2022-09-09T05:10:36;2.27;;;0.83;;
11111;SDS011;5609;49.466;8.468;2022-09-09T05:13:03;2.23;;;0.80;;
11111;SDS011;5609;49.466;8.468;2022-09-09T05:15:31;3.00;;;0.90;;
11111;SDS011;5609;49.466;8.468;2022-09-09T05:17:58;1.90;;;0.90;;
11111;SDS011;5609;49.466;8.468;2022-09-09T05:20:26;2.40;;;0.90;;
11111;SDS011;5609;49.466;8.468;2022-09-09T05:22:53;2.43;;;1.00;;
11111;SDS011;5609;49.466;8.468;2022-09-09T05:25:20;2.47;;;0.80;;
11111;SDS011;5609;49.466;8.468;2022-09-09T05:27:50;1.57;;;0.90;;
11111;SDS011;5609;49.466;8.468;2022-09-09T05:30:18;1.97;;;1.00;;
11111;SDS011;5609;49.466;8.468;2022-09-09T05:32:45;2.37;;;0.87;;
11111;SDS011;5609;49.466;8.468;2022-09-09T05:35:13;2.17;;;0.60;;
11111;SDS011;5609;49.466;8.468;2022-09-09T05:37:41;2.90;;;0.83;;
11111;SDS011;5609;49.466;8.468;2022-09-09T05:40:08;2.47;;;0.90;;
11111;SDS011;5609;49.466;8.468;2022-09-09T05:42:36;3.73;;;1.20;;
11111;SDS011;5609;49.466;8.468;2022-09-09T05:45:05;2.50;;;1.17;;
11111;SDS011;5609;49.466;8.468;2022-09-09T05:47:33;1.83;;;0.90;;
11111;SDS011;5609;49.466;8.468;2022-09-09T05:50:02;1.77;;;0.90;;
11111;SDS011;5609;49.466;8.468;2022-09-09T05:52:29;4.00;;;1.20;;
11111;SDS011;5609;49.466;8.468;2022-09-09T05:54:56;2.77;;;1.10;;
11111;SDS011;5609;49.466;8.468;2022-09-09T05:57:24;2.30;;;0.80;;
11111;SDS011;5609;49.466;8.468;2022-09-09T05:59:51;2.43;;;1.10;;
11111;SDS011;5609;49.466;8.468;2022-09-09T06:02:20;2.90;;;1.20;;
11111;SDS011;5609;49.466;8.468;2022-09-09T06:04:47;3.37;;;0.93;;
11111;SDS011;5609;49.466;8.468;2022-09-09T06:07:14;1.93;;;0.90;;
11111;SDS011;5609;49.466;8.468;2022-09-09T06:09:41;3.20;;;1.00;;
11111;SDS011;5609;49.466;8.468;2022-09-09T06:12:08;2.87;;;1.20;;
11111;SDS011;5609;49.466;8.468;2022-09-09T06:14:35;3.07;;;1.00;;
11111;SDS011;5609;49.466;8.468;2022-09-09T06:17:02;4.23;;;1.20;;
11111;SDS011;5609;49.466;8.468;2022-09-09T06:19:31;4.27;;;1.10;;
11111;SDS011;5609;49.466;8.468;2022-09-09T06:21:58;3.77;;;1.47;;
11111;SDS011;5609;49.466;8.468;2022-09-09T06:24:25;3.40;;;0.93;;
11111;SDS011;5609;49.466;8.468;2022-09-09T06:26:55;2.67;;;0.80;;
11111;SDS011;5609;49.466;8.468;2022-09-09T06:29:23;2.00;;;1.00;;
11111;SDS011;5609;49.466;8.468;2022-09-09T06:31:50;1.70;;;0.93;;
11111;SDS011;5609;49.466;8.468;2022-09-09T06:34:17;2.87;;;1.10;;
11111;SDS011;5609;49.466;8.468;2022-09-09T06:36:45;3.57;;;1.00;;
11111;SDS011;5609;49.466;8.468;2022-09-09T06:39:12;2.13;;;1.00;;
11111;SDS011;5609;49.466;8.468;2022-09-09T06:41:40;4.40;;;1.30;;
11111;SDS011;5609;49.466;8.468;2022-09-09T06:44:08;2.27;;;0.83;;
11111;SDS011;5609;49.466;8.468;2022-09-09T06:46:36;2.23;;;0.80;;
11111;SDS011;5609;49.466;8.468;2022-09-09T06:49:04;2.23;;;1.17;;
11111;SDS011;5609;49.466;8.468;2022-09-09T06:51:33;1.90;;;0.90;;
11111;SDS011;5609;49.466;8.468;2022-09-09T06:54:02;2.23;;;0.77;;
11111;SDS011;5609;49.466;8.468;2022-09-09T06:56:30;3.40;;;1.00;;
11111;SDS011;5609;49.466;8.468;2022-09-09T06:58:58;3.43;;;1.20;;
11111;SDS011;5609;49.466;8.468;2022-09-09T07:01:26;2.90;;;1.20;;
11111;SDS011;5609;49.466;8.468;2022-09-09T07:03:54;3.27;;;1.10;;
11111;SDS011;5609;49.466;8.468;2022-09-09T07:06:23;2.17;;;1.20;;
11111;SDS011;5609;49.466;8.468;2022-09-09T07:08:50;1.83;;;0.67;;
11111;SDS011;5609;49.466;8.468;2022-09-09T07:11:19;4.27;;;1.10;;
11111;SDS011;5609;49.466;8.468;2022-09-09T07:13:47;2.90;;;1.13;;
11111;SDS011;5609;49.466;8.468;2022-09-09T07:16:15;2.43;;;1.00;;
11111;SDS011;5609;49.466;8.468;2022-09-09T07:18:43;3.23;;;1.10;;
11111;SDS011;5609;49.466;8.468;2022-09-09T07:21:10;3.23;;;1.10;;
11111;SDS011;5609;49.466;8.468;2022-09-09T07:23:38;3.17;;;1.00;;
11111;SDS011;5609;49.466;8.468;2022-09-09T07:26:09;3.43;;;1.17;;
11111;SDS011;5609;49.466;8.468;2022-09-09T07:28:38;3.33;;;1.20;;
11111;SDS011;5609;49.466;8.468;2022-09-09T07:31:05;2.57;;;1.10;;
11111;SDS011;5609;49.466;8.468;2022-09-09T07:33:33;2.67;;;1.00;;
11111;SDS011;5609;49.466;8.468;2022-09-09T07:36:04;5.43;;;1.20;;
11111;SDS011;5609;49.466;8.468;2022-09-09T07:38:33;2.77;;;1.30;;
11111;SDS011;5609;49.466;8.468;2022-09-09T07:41:04;2.77;;;1.30;;
11111;SDS011;5609;49.466;8.468;2022-09-09T07:43:33;2.23;;;1.00;;
11111;SDS011;5609;49.466;8.468;2022-09-09T07:46:02;5.07;;;1.10;;
11111;SDS011;5609;49.466;8.468;2022-09-09T07:48:29;4.83;;;1.50;;
11111;SDS011;5609;49.466;8.468;2022-09-09T07:51:04;2.20;;;1.17;;
11111;SDS011;5609;49.466;8.468;2022-09-09T07:53:32;4.27;;;1.33;;
11111;SDS011;5609;49.466;8.468;2022-09-09T07:56:02;3.40;;;1.17;;
11111;SDS011;5609;49.466;8.468;2022-09-09T07:58:29;5.13;;;1.23;;
11111;SDS011;5609;49.466;8.468;2022-09-09T08:00:56;3.80;;;1.37;;
11111;SDS011;5609;49.466;8.468;2022-09-09T08:03:25;3.27;;;1.20;;
11111;SDS011;5609;49.466;8.468;2022-09-09T08:05:52;3.17;;;1.07;;
11111;SDS011;5609;49.466;8.468;2022-09-09T08:08:19;3.50;;;1.00;;
11111;SDS011;5609;49.466;8.468;2022-09-09T08:10:46;4.30;;;1.20;;
11111;SDS011;5609;49.466;8.468;2022-09-09T08:13:13;3.67;;;1.50;;
11111;SDS011;5609;49.466;8.468;2022-09-09T08:15:40;3.63;;;1.43;;
11111;SDS011;5609;49.466;8.468;2022-09-09T08:18:08;5.20;;;1.40;;
11111;SDS011;5609;49.466;8.468;2022-09-09T08:20:37;2.70;;;1.17;;
11111;SDS011;5609;49.466;8.468;2022-09-09T08:23:04;4.13;;;1.40;;
11111;SDS011;5609;49.466;8.468;2022-09-09T08:25:31;3.27;;;1.13;;
11111;SDS011;5609;49.466;8.468;2022-09-09T08:27:59;4.63;;;1.30;;
11111;SDS011;5609;49.466;8.468;2022-09-09T08:30:26;3.00;;;1.20;;
11111;SDS011;5609;49.466;8.468;2022-09-09T08:32:53;6.40;;;1.57;;
11111;SDS011;5609;49.466;8.468;2022-09-09T08:35:20;6.00;;;1.30;;
11111;SDS011;5609;49.466;8.468;2022-09-09T08:37:49;2.93;;;1.17;;
11111;SDS011;5609;49.466;8.468;2022-09-09T08:40:21;3.47;;;1.40;;
11111;SDS011;5609;49.466;8.468;2022-09-09T08:42:49;3.67;;;1.40;;
11111;SDS011;5609;49.466;8.468;2022-09-09T08:45:24;3.63;;;1.10;;
11111;SDS011;5609;49.466;8.468;2022-09-09T08:47:59;3.17;;;1.13;;
11111;SDS011;5609;49.466;8.468;2022-09-09T08:50:29;4.50;;;1.30;;
11111;SDS011;5609;49.466;8.468;2022-09-09T08:53:01;4.40;;;1.40;;
11111;SDS011;5609;49.466;8.468;2022-09-09T08:55:32;5.57;;;1.30;;
11111;SDS011;5609;49.466;8.468;2022-09-09T08:58:11;4.23;;;1.40;;
11111;SDS011;5609;49.466;8.468;2022-09-09T09:00:40;5.63;;;1.50;;
11111;SDS011;5609;49.466;8.468;2022-09-09T09:03:11;5.13;;;1.40;;
11111;SDS011;5609;49.466;8.468;2022-09-09T09:05:43;3.93;;;1.23;;
11111;SDS011;5609;49.466;8.468;2022-09-09T09:08:15;4.30;;;1.60;;
11111;SDS011;5609;49.466;8.468;2022-09-09T09:10:45;5.30;;;1.30;;
11111;SDS011;5609;49.466;8.468;2022-09-09T09:13:14;2.73;;;1.17;;
11111;SDS011;5609;49.466;8.468;2022-09-09T09:15:42;3.13;;;1.23;;
11111;SDS011;5609;49.466;8.468;2022-09-09T09:18:10;3.40;;;1.30;;
11111;SDS011;5609;49.466;8.468;2022-09-09T09:20:40;4.10;;;1.20;;
11111;SDS011;5609;49.466;8.468;2022-09-09T09:23:11;5.47;;;1.60;;
11111;SDS011;5609;49.466;8.468;2022-09-09T09:25:42;2.60;;;1.30;;
11111;SDS011;5609;49.466;8.468;2022-09-09T09:28:10;4.20;;;1.50;;
11111;SDS011;5609;49.466;8.468;2022-09-09T09:30:42;2.77;;;1.30;;
11111;SDS011;5609;49.466;8.468;2022-09-09T09:33:14;3.57;;;1.30;;
11111;SDS011;5609;49.466;8.468;2022-09-09T09:35:42;3.13;;;1.40;;
11111;SDS011;5609;49.466;8.468;2022-09-09T09:38:12;4.03;;;1.20;;
11111;SDS011;5609;49.466;8.468;2022-09-09T09:40:49;5.13;;;1.47;;
11111;SDS011;5609;49.466;8.468;2022-09-09T09:43:19;4.73;;;1.43;;
11111;SDS011;5609;49.466;8.468;2022-09-09T09:45:46;4.10;;;1.20;;
11111;SDS011;5609;49.466;8.468;2022-09-09T09:48:14;5.60;;;1.87;;
11111;SDS011;5609;49.466;8.468;2022-09-09T09:50:46;4.67;;;1.20;;
11111;SDS011;5609;49.466;8.468;2022-09-09T09:53:17;2.53;;;1.33;;
11111;SDS011;5609;49.466;8.468;2022-09-09T09:55:46;4.23;;;1.57;;
11111;SDS011;5609;49.466;8.468;2022-09-09T09:58:16;4.40;;;1.47;;
11111;SDS011;5609;49.466;8.468;2022-09-09T10:00:47;3.73;;;1.20;;
11111;SDS011;5609;49.466;8.468;2022-09-09T10:03:19;4.43;;;1.57;;
11111;SDS011;5609;49.466;8.468;2022-09-09T10:05:47;4.60;;;1.50;;
11111;SDS011;5609;49.466;8.468;2022-09-09T10:08:15;3.27;;;1.20;;
11111;SDS011;5609;49.466;8.468;2022-09-09T10:10:47;5.53;;;1.43;;
11111;SDS011;5609;49.466;8.468;2022-09-09T10:13:18;2.07;;;1.10;;
11111;SDS011;5609;49.466;8.468;2022-09-09T10:15:51;2.67;;;0.93;;
11111;SDS011;5609;49.466;8.468;2022-09-09T10:18:22;1.87;;;1.07;;
11111;SDS011;5609;49.466;8.468;2022-09-09T10:20:53;4.17;;;1.17;;
11111;SDS011;5609;49.466;8.468;2022-09-09T10:23:26;3.10;;;1.20;;
11111;SDS011;5609;49.466;8.468;2022-09-09T10:26:02;3.03;;;1.40;;
11111;SDS011;5609;49.466;8.468;2022-09-09T10:28:38;3.27;;;1.40;;
11111;SDS011;5609;49.466;8.468;2022-09-09T10:31:15;4.80;;;1.50;;
11111;SDS011;5609;49.466;8.468;2022-09-09T10:33:48;5.43;;;1.50;;
11111;SDS011;5609;49.466;8.468;2022-09-09T10:36:17;3.67;;;1.23;;
11111;SDS011;5609;49.466;8.468;2022-09-09T10:38:46;3.93;;;1.50;;
11111;SDS011;5609;49.466;8.468;2022-09-09T10:41:16;3.10;;;1.30;;
11111;SDS011;5609;49.466;8.468;2022-09-09T10:46:30;3.83;;;1.70;;
11111;SDS011;5609;49.466;8.468;2022-09-09T10:49:07;3.60;;;1.30;;
11111;SDS011;5609;49.466;8.468;2022-09-09T10:51:39;5.47;;;1.60;;
11111;SDS011;5609;49.466;8.468;2022-09-09T10:54:12;3.67;;;1.30;;
11111;SDS011;5609;49.466;8.468;2022-09-09T10:56:44;5.50;;;1.50;;
11111;SDS011;5609;49.466;8.468;2022-09-09T10:59:12;4.30;;;1.50;;
11111;SDS011;5609;49.466;8.468;2022-09-09T11:01:43;4.23;;;1.43;;
11111;SDS011;5609;49.466;8.468;2022-09-09T11:04:13;4.17;;;1.30;;
11111;SDS011;5609;49.466;8.468;2022-09-09T11:06:44;3.07;;;1.40;;
11111;SDS011;5609;49.466;8.468;2022-09-09T11:09:13;6.20;;;1.57;;
11111;SDS011;5609;49.466;8.468;2022-09-09T11:11:43;4.37;;;1.60;;
11111;SDS011;5609;49.466;8.468;2022-09-09T11:14:14;3.33;;;1.27;;
11111;SDS011;5609;49.466;8.468;2022-09-09T11:16:45;3.23;;;1.47;;
11111;SDS011;5609;49.466;8.468;2022-09-09T11:19:14;3.80;;;1.50;;
11111;SDS011;5609;49.466;8.468;2022-09-09T11:21:44;3.97;;;1.50;;
11111;SDS011;5609;49.466;8.468;2022-09-09T11:24:13;4.07;;;1.33;;
11111;SDS011;5609;49.466;8.468;2022-09-09T11:26:44;5.00;;;1.70;;
11111;SDS011;5609;49.466;8.468;2022-09-09T11:29:23;3.07;;;1.60;;
11111;SDS011;5609;49.466;8.468;2022-09-09T11:31:57;5.13;;;1.30;;
11111;SDS011;5609;49.466;8.468;2022-09-09T11:34:34;3.90;;;1.40;;
11111;SDS011;5609;49.466;8.468;2022-09-09T11:37:11;3.63;;;1.27;;
11111;SDS011;5609;49.466;8.468;2022-09-09T11:42:29;4.23;;;1.40;;
11111;SDS011;5609;49.466;8.468;2022-09-09T11:44:56;4.93;;;1.50;;
11111;SDS011;5609;49.466;8.468;2022-09-09T11:47:26;3.80;;;1.17;;
11111;SDS011;5609;49.466;8.468;2022-09-09T11:49:55;5.67;;;1.60;;
11111;SDS011;5609;49.466;8.468;2022-09-09T11:52:23;3.53;;;1.20;;
11111;SDS011;5609;49.466;8.468;2022-09-09T11:54:51;3.43;;;1.60;;
11111;SDS011;5609;49.466;8.468;2022-09-09T11:57:23;3.77;;;1.50;;
11111;SDS011;5609;49.466;8.468;2022-09-09T11:59:51;3.20;;;1.20;;
11111;SDS011;5609;49.466;8.468;2022-09-09T12:02:19;3.37;;;1.43;;
11111;SDS011;5609;49.466;8.468;2022-09-09T12:04:54;4.63;;;1.40;;
11111;SDS011;5609;49.466;8.468;2022-09-09T12:07:30;3.43;;;1.20;;
11111;SDS011;5609;49.466;8.468;2022-09-09T12:09:58;4.20;;;1.77;;
11111;SDS011;5609;49.466;8.468;2022-09-09T12:12:31;2.90;;;1.40;;
11111;SDS011;5609;49.466;8.468;2022-09-09T12:15:03;4.13;;;1.30;;
11111;SDS011;5609;49.466;8.468;2022-09-09T12:17:46;3.97;;;1.37;;
11111;SDS011;5609;49.466;8.468;2022-09-09T12:20:16;4.30;;;1.27;;
11111;SDS011;5609;49.466;8.468;2022-09-09T12:25:43;1.63;;;0.60;;
11111;SDS011;5609;49.466;8.468;2022-09-09T12:28:15;2.73;;;0.80;;
11111;SDS011;5609;49.466;8.468;2022-09-09T12:30:46;1.50;;;0.60;;
11111;SDS011;5609;49.466;8.468;2022-09-09T12:33:16;2.17;;;0.80;;
11111;SDS011;5609;49.466;8.468;2022-09-09T12:35:45;3.10;;;0.80;;
11111;SDS011;5609;49.466;8.468;2022-09-09T12:38:15;2.97;;;0.93;;
11111;SDS011;5609;49.466;8.468;2022-09-09T12:40:53;1.50;;;0.80;;
11111;SDS011;5609;49.466;8.468;2022-09-09T12:43:20;2.57;;;1.20;;
11111;SDS011;5609;49.466;8.468;2022-09-09T12:45:48;2.87;;;1.17;;
11111;SDS011;5609;49.466;8.468;2022-09-09T12:48:27;1.73;;;0.90;;
11111;SDS011;5609;49.466;8.468;2022-09-09T12:50:58;3.10;;;1.10;;
11111;SDS011;5609;49.466;8.468;2022-09-09T12:53:26;4.70;;;1.23;;
11111;SDS011;5609;49.466;8.468;2022-09-09T12:55:55;2.47;;;1.03;;
11111;SDS011;5609;49.466;8.468;2022-09-09T12:58:22;1.97;;;0.90;;
11111;SDS011;5609;49.466;8.468;2022-09-09T13:00:50;3.27;;;1.17;;
11111;SDS011;5609;49.466;8.468;2022-09-09T13:03:19;3.60;;;1.30;;
11111;SDS011;5609;49.466;8.468;2022-09-09T13:05:46;3.30;;;1.20;;
11111;SDS011;5609;49.466;8.468;2022-09-09T13:08:15;2.03;;;1.10;;
11111;SDS011;5609;49.466;8.468;2022-09-09T13:10:46;4.90;;;1.50;;
11111;SDS011;5609;49.466;8.468;2022-09-09T13:13:13;3.43;;;1.30;;
11111;SDS011;5609;49.466;8.468;2022-09-09T13:15:47;5.37;;;1.60;;
11111;SDS011;5609;49.466;8.468;2022-09-09T13:18:15;4.57;;;1.70;;
11111;SDS011;5609;49.466;8.468;2022-09-09T13:20:45;4.13;;;1.83;;
11111;SDS011;5609;49.466;8.468;2022-09-09T13:23:12;3.47;;;1.67;;
11111;SDS011;5609;49.466;8.468;2022-09-09T13:25:41;5.07;;;1.60;;
11111;SDS011;5609;49.466;8.468;2022-09-09T13:28:20;4.27;;;1.77;;
11111;SDS011;5609;49.466;8.468;2022-09-09T13:30:54;8.07;;;2.43;;
11111;SDS011;5609;49.466;8.468;2022-09-09T13:33:28;3.77;;;1.40;;
11111;SDS011;5609;49.466;8.468;2022-09-09T13:35:55;6.93;;;1.90;;
11111;SDS011;5609;49.466;8.468;2022-09-09T13:38:23;4.43;;;1.50;;
11111;SDS011;5609;49.466;8.468;2022-09-09T13:40:53;5.00;;;1.50;;
11111;SDS011;5609;49.466;8.468;2022-09-09T13:43:22;5.00;;;2.00;;
11111;SDS011;5609;49.466;8.468;2022-09-09T13:45:54;5.93;;;1.50;;
11111;SDS011;5609;49.466;8.468;2022-09-09T13:48:21;3.10;;;1.40;;
11111;SDS011;5609;49.466;8.468;2022-09-09T13:50:53;4.03;;;1.40;;
11111;SDS011;5609;49.466;8.468;2022-09-09T13:53:20;3.30;;;1.37;;
11111;SDS011;5609;49.466;8.468;2022-09-09T13:55:47;3.43;;;1.43;;
11111;SDS011;5609;49.466;8.468;2022-09-09T13:58:16;3.10;;;1.30;;
11111;SDS011;5609;49.466;8.468;2022-09-09T14:00:44;5.80;;;1.23;;
11111;SDS011;5609;49.466;8.468;2022-09-09T14:03:11;2.90;;;1.00;;
11111;SDS011;5609;49.466;8.468;2022-09-09T14:05:38;2.03;;;0.97;;
11111;SDS011;5609;49.466;8.468;2022-09-09T14:08:06;2.07;;;0.87;;
11111;SDS011;5609;49.466;8.468;2022-09-09T14:10:33;1.77;;;0.93;;
11111;SDS011;5609;49.466;8.468;2022-09-09T14:13:02;2.80;;;0.80;;
11111;SDS011;5609;49.466;8.468;2022-09-09T14:15:30;1.90;;;0.80;;
11111;SDS011;5609;49.466;8.468;2022-09-09T14:17:57;2.67;;;0.80;;
11111;SDS011;5609;49.466;8.468;2022-09-09T14:20:24;2.57;;;0.90;;
11111;SDS011;5609;49.466;8.468;2022-09-09T14:22:52;1.73;;;0.90;;
11111;SDS011;5609;49.466;8.468;2022-09-09T14:25:19;2.13;;;1.03;;
11111;SDS011;5609;49.466;8.468;2022-09-09T14:27:46;1.70;;;0.60;;
11111;SDS011;5609;49.466;8.468;2022-09-09T14:30:14;1.37;;;0.60;;
11111;SDS011;5609;49.466;8.468;2022-09-09T14:32:42;1.93;;;0.70;;
11111;SDS011;5609;49.466;8.468;2022-09-09T14:35:09;2.03;;;0.80;;
11111;SDS011;5609;49.466;8.468;2022-09-09T14:37:37;2.10;;;0.87;;
11111;SDS011;5609;49.466;8.468;2022-09-09T14:40:05;2.90;;;1.10;;
11111;SDS011;5609;49.466;8.468;2022-09-09T14:42:33;2.20;;;0.90;;
11111;SDS011;5609;49.466;8.468;2022-09-09T14:45:00;3.07;;;1.10;;
11111;SDS011;5609;49.466;8.468;2022-09-09T14:47:27;2.43;;;1.00;;
11111;SDS011;5609;49.466;8.468;2022-09-09T14:49:56;2.87;;;0.80;;
11111;SDS011;5609;49.466;8.468;2022-09-09T14:52:23;2.37;;;1.00;;
11111;SDS011;5609;49.466;8.468;2022-09-09T14:54:51;3.37;;;0.93;;
11111;SDS011;5609;49.466;8.468;2022-09-09T14:57:18;2.23;;;1.20;;
11111;SDS011;5609;49.466;8.468;2022-09-09T14:59:45;2.20;;;1.00;;
11111;SDS011;5609;49.466;8.468;2022-09-09T15:02:14;2.67;;;1.00;;
11111;SDS011;5609;49.466;8.468;2022-09-09T15:04:41;4.93;;;1.37;;
11111;SDS011;5609;49.466;8.468;2022-09-09T15:07:10;2.47;;;1.23;;
11111;SDS011;5609;49.466;8.468;2022-09-09T15:09:37;2.93;;;1.17;;
11111;SDS011;5609;49.466;8.468;2022-09-09T15:12:05;3.13;;;1.10;;
11111;SDS011;5609;49.466;8.468;2022-09-09T15:14:32;4.60;;;1.23;;
11111;SDS011;5609;49.466;8.468;2022-09-09T15:17:00;5.00;;;1.50;;
11111;SDS011;5609;49.466;8.468;2022-09-09T15:19:27;6.60;;;1.23;;
11111;SDS011;5609;49.466;8.468;2022-09-09T15:21:54;3.77;;;1.50;;